LFMY

Salon-de-Provence (BA 701) Air Base

Airport
ICAO code
LFMY
Summary
ICAO Region
EUR
ICAO Territory
Location

, Provence-Alpes-Cote d'Azur

Serving
Salon
Elevation
195 ft
Coordinates
43° 36' 23" N , 5° 6' 33" E
Metar
Observation
LFMY 021230Z AUTO VRB02KT CAVOK 11/05 Q1015 TEMPO SCT035TCU
Station
Salon
Date/Time
2022-12-02 12:30:00
Wind speed
02 kts
Lowest cloud amount
scattered clouds
Temperature
11°C
Dew point
5°C
Humidity
66%
QNH
1015 hPa
Weather condition
n/a

Runways

Designator Length Width Surface Rops
9/27 0 0 UNK No/No
17L/35R 0 0 UNK No/No
17R/35L 0 0 UNK No/No
16/34 2001 45 CON No/No

Airport map

Aerial View

SKYbrary Partners:

Safety knowledge contributed by: